createdAt,value
2022-10-29T00:01:13.979Z,9.97
2022-10-29T00:03:42.387Z,12.93
2022-10-29T00:06:13.162Z,11.37
2022-10-29T00:08:42.865Z,8.27
2022-10-29T00:11:20.450Z,9.63
2022-10-29T00:13:54.053Z,10.80
2022-10-29T00:16:24.645Z,10.23
2022-10-29T00:18:53.019Z,8.77
2022-10-29T00:21:24.246Z,9.60
2022-10-29T00:23:53.653Z,9.50
2022-10-29T00:26:24.015Z,11.90
2022-10-29T00:28:57.602Z,11.40
2022-10-29T00:31:26.631Z,12.40
2022-10-29T00:33:56.755Z,11.60
2022-10-29T00:36:28.141Z,11.20
2022-10-29T00:38:58.217Z,7.70
2022-10-29T00:41:29.939Z,8.40
2022-10-29T00:44:17.746Z,9.00
2022-10-29T00:46:50.578Z,9.27
2022-10-29T00:49:19.544Z,8.50
2022-10-29T00:51:48.679Z,7.30
2022-10-29T00:54:18.426Z,9.63
2022-10-29T00:56:56.315Z,7.07
2022-10-29T00:59:25.267Z,7.53
2022-10-29T01:01:54.763Z,7.03
2022-10-29T01:04:24.512Z,8.90
2022-10-29T01:06:54.003Z,8.07
2022-10-29T01:09:22.341Z,9.30
2022-10-29T01:12:19.641Z,9.50
2022-10-29T01:15:41.885Z,8.97
2022-10-29T01:18:16.146Z,7.30
2022-10-29T01:20:59.420Z,9.00
2022-10-29T01:23:49.221Z,8.20
2022-10-29T01:26:23.309Z,9.83
2022-10-29T01:28:54.771Z,8.60
2022-10-29T01:31:39.282Z,8.20
2022-10-29T01:34:31.741Z,12.07
2022-10-29T01:37:09.907Z,8.47
2022-10-29T01:39:56.118Z,6.97
2022-10-29T01:42:39.826Z,7.50
2022-10-29T01:45:19.286Z,6.97
2022-10-29T01:47:55.416Z,7.70
2022-10-29T01:50:25.995Z,8.13
2022-10-29T01:52:55.953Z,8.80
2022-10-29T01:55:30.938Z,7.50
2022-10-29T01:58:00.036Z,8.97
2022-10-29T02:00:31.322Z,8.97
2022-10-29T02:03:07.202Z,11.47
2022-10-29T02:05:47.959Z,7.20
2022-10-29T02:08:44.307Z,7.17
2022-10-29T02:11:24.865Z,7.00
2022-10-29T02:14:13.514Z,9.77
2022-10-29T02:16:42.677Z,6.97
2022-10-29T02:19:11.238Z,9.80
2022-10-29T02:21:41.402Z,7.77
2022-10-29T02:24:10.047Z,12.50
2022-10-29T02:26:38.575Z,8.13
2022-10-29T02:29:06.968Z,7.10
2022-10-29T02:31:37.030Z,11.37
2022-10-29T02:34:05.398Z,7.60
2022-10-29T02:36:33.939Z,10.27
2022-10-29T02:39:02.337Z,10.80
2022-10-29T02:41:30.759Z,8.07
2022-10-29T02:43:59.127Z,9.40
2022-10-29T02:46:28.068Z,8.73
2022-10-29T02:48:56.675Z,12.40
2022-10-29T02:51:25.201Z,8.10
2022-10-29T02:53:53.561Z,8.83
2022-10-29T02:56:21.908Z,7.90
2022-10-29T02:58:50.316Z,7.57
2022-10-29T03:01:18.929Z,7.87
2022-10-29T03:03:47.621Z,7.80
2022-10-29T03:06:17.971Z,8.63
2022-10-29T03:08:47.148Z,10.10
2022-10-29T03:11:15.821Z,10.20
2022-10-29T03:13:44.578Z,9.03
2022-10-29T03:16:12.901Z,9.30
2022-10-29T03:18:41.285Z,12.83
2022-10-29T03:21:09.810Z,9.23
2022-10-29T03:23:38.278Z,15.17
2022-10-29T03:26:06.926Z,11.23
2022-10-29T03:28:35.510Z,15.40
2022-10-29T03:31:03.954Z,10.33
2022-10-29T03:33:32.409Z,15.80
2022-10-29T03:36:07.030Z,10.23
2022-10-29T03:38:36.042Z,15.17
2022-10-29T03:41:09.387Z,16.90
2022-10-29T03:43:40.398Z,11.20
2022-10-29T03:46:09.035Z,11.10
2022-10-29T03:48:37.514Z,13.33
2022-10-29T03:51:07.366Z,12.97
2022-10-29T03:53:37.346Z,16.53
2022-10-29T03:56:06.290Z,14.50
2022-10-29T03:58:34.690Z,10.70
2022-10-29T04:01:10.820Z,15.40
2022-10-29T04:03:42.969Z,10.93
2022-10-29T04:06:16.568Z,12.03
2022-10-29T04:08:44.997Z,10.40
2022-10-29T04:11:14.929Z,11.90
2022-10-29T04:13:43.446Z,10.97
2022-10-29T04:16:11.770Z,10.63
2022-10-29T04:18:40.663Z,11.30
2022-10-29T04:29:36.685Z,15.27
2022-10-29T04:32:05.253Z,14.70
2022-10-29T04:34:33.594Z,11.97
2022-10-29T04:37:02.003Z,11.53
2022-10-29T04:39:30.419Z,9.83
2022-10-29T04:41:58.925Z,12.00
2022-10-29T04:44:27.253Z,9.60
2022-10-29T04:46:55.717Z,13.37
2022-10-29T04:49:24.284Z,11.23
2022-10-29T04:51:52.669Z,9.77
2022-10-29T04:54:21.113Z,11.30
2022-10-29T04:56:49.477Z,13.00
2022-10-29T04:59:17.838Z,12.00
2022-10-29T05:01:46.220Z,14.13
2022-10-29T05:04:14.623Z,14.90
2022-10-29T05:06:43.009Z,15.13
2022-10-29T05:09:11.422Z,15.07
2022-10-29T05:11:39.828Z,16.43
2022-10-29T05:14:08.222Z,16.43
2022-10-29T05:16:37.101Z,10.43
2022-10-29T05:19:06.724Z,11.87
2022-10-29T05:21:35.158Z,10.33
2022-10-29T05:24:03.568Z,13.40
2022-10-29T05:26:35.833Z,10.90
2022-10-29T05:29:04.375Z,11.90
2022-10-29T05:31:32.729Z,11.13
2022-10-29T05:34:01.130Z,9.70
2022-10-29T05:36:29.487Z,9.83
2022-10-29T05:38:57.879Z,10.93
2022-10-29T05:41:26.212Z,12.83
2022-10-29T05:43:54.734Z,13.20
2022-10-29T05:46:23.082Z,14.03
2022-10-29T05:48:51.451Z,11.60
2022-10-29T05:51:19.868Z,10.97
2022-10-29T05:53:49.675Z,17.40
2022-10-29T05:56:18.087Z,13.10
2022-10-29T05:58:46.489Z,12.60
2022-10-29T06:01:14.985Z,18.40
2022-10-29T06:03:43.480Z,13.30
2022-10-29T06:06:11.943Z,13.63
2022-10-29T06:08:40.321Z,17.90
2022-10-29T06:11:08.746Z,14.67
2022-10-29T06:13:37.311Z,14.43
2022-10-29T06:16:06.090Z,12.97
2022-10-29T06:18:34.544Z,17.83
2022-10-29T06:21:03.150Z,13.13
2022-10-29T06:23:31.583Z,17.37
2022-10-29T06:26:04.254Z,20.17
2022-10-29T06:28:34.740Z,22.33
2022-10-29T06:31:03.906Z,14.50
2022-10-29T06:33:32.396Z,21.67
2022-10-29T06:36:02.222Z,18.67
2022-10-29T06:38:30.730Z,17.30
2022-10-29T06:40:59.270Z,17.07
2022-10-29T06:43:27.712Z,14.07
2022-10-29T06:45:56.757Z,12.90
2022-10-29T06:48:25.334Z,13.47
2022-10-29T06:50:54.831Z,17.40
2022-10-29T06:53:23.227Z,14.00
2022-10-29T06:55:51.599Z,12.57
2022-10-29T06:58:21.377Z,15.90
2022-10-29T07:00:50.125Z,18.93
2022-10-29T07:03:21.901Z,17.80
2022-10-29T07:05:58.524Z,17.70
2022-10-29T07:08:27.378Z,19.00
2022-10-29T07:10:56.139Z,15.67
2022-10-29T07:13:24.744Z,16.00
2022-10-29T07:15:53.331Z,13.43
2022-10-29T07:18:21.828Z,12.17
2022-10-29T07:20:50.172Z,17.37
2022-10-29T07:23:18.779Z,12.60
2022-10-29T07:25:47.182Z,12.60
2022-10-29T07:28:18.025Z,16.27
2022-10-29T07:30:46.874Z,16.67
2022-10-29T07:33:16.396Z,14.77
2022-10-29T07:35:45.815Z,18.97
2022-10-29T07:38:14.371Z,18.10
2022-10-29T07:40:51.164Z,17.20
2022-10-29T07:43:20.710Z,17.37
2022-10-29T07:45:51.544Z,19.10
2022-10-29T07:48:21.571Z,17.17
2022-10-29T07:50:50.461Z,20.20
2022-10-29T07:53:19.197Z,18.50
2022-10-29T07:55:54.862Z,18.00
2022-10-29T07:58:24.185Z,19.67
2022-10-29T08:00:52.691Z,23.80
2022-10-29T08:03:21.290Z,17.37
2022-10-29T08:05:55.419Z,16.70
2022-10-29T08:08:25.798Z,23.17
2022-10-29T08:10:54.147Z,19.10
2022-10-29T08:13:22.482Z,23.47
2022-10-29T08:15:50.944Z,23.20
2022-10-29T08:18:19.893Z,19.00
2022-10-29T08:20:48.361Z,23.80
2022-10-29T08:23:16.973Z,28.30
2022-10-29T08:25:46.071Z,27.93
2022-10-29T08:28:16.245Z,24.83
2022-10-29T08:30:44.973Z,22.80
2022-10-29T08:33:13.368Z,28.50
2022-10-29T08:35:41.707Z,23.40
2022-10-29T08:38:10.619Z,30.10
2022-10-29T08:41:02.297Z,28.10
2022-10-29T08:44:17.987Z,24.27
2022-10-29T08:46:53.834Z,25.13
2022-10-29T08:49:36.083Z,31.40
2022-10-29T08:52:15.008Z,26.97
2022-10-29T08:54:47.057Z,33.00
2022-10-29T08:57:17.477Z,31.10
2022-10-29T09:02:36.662Z,26.07
2022-10-29T09:05:05.210Z,25.37
2022-10-29T09:08:02.226Z,21.90
2022-10-29T09:10:42.231Z,22.73
2022-10-29T09:14:03.051Z,23.43
2022-10-29T09:16:44.026Z,21.70
2022-10-29T09:19:28.815Z,18.60
2022-10-29T09:22:00.748Z,17.50
2022-10-29T09:24:49.316Z,20.60
2022-10-29T09:27:42.265Z,17.33
2022-10-29T09:30:21.221Z,30.97
2022-10-29T09:33:08.047Z,17.03
2022-10-29T09:35:47.509Z,23.10
2022-10-29T09:38:20.212Z,20.83
2022-10-29T09:40:48.834Z,24.03
2022-10-29T09:43:39.893Z,18.60
2022-10-29T09:46:34.447Z,17.20
2022-10-29T09:52:04.844Z,20.83
2022-10-29T09:54:33.950Z,22.10
2022-10-29T09:57:04.621Z,16.63
2022-10-29T09:59:45.602Z,17.77
2022-10-29T10:02:44.124Z,18.03
2022-10-29T10:05:16.857Z,20.83
2022-10-29T10:08:21.773Z,21.87
2022-10-29T10:10:58.699Z,21.30
2022-10-29T10:13:51.041Z,16.23
2022-10-29T10:16:27.884Z,20.30
2022-10-29T10:18:56.547Z,15.67
2022-10-29T10:21:33.908Z,21.23
2022-10-29T10:24:02.601Z,17.60
2022-10-29T10:26:44.315Z,17.17
2022-10-29T10:29:19.822Z,17.40
2022-10-29T10:32:11.309Z,15.97
2022-10-29T10:34:40.699Z,15.67
2022-10-29T10:37:12.318Z,21.70
2022-10-29T10:39:51.450Z,21.00
2022-10-29T10:42:33.284Z,14.37
2022-10-29T10:45:04.677Z,19.13
2022-10-29T10:47:37.471Z,15.03
2022-10-29T10:50:30.107Z,18.57
2022-10-29T10:53:17.369Z,14.43
2022-10-29T10:55:54.277Z,16.10
2022-10-29T10:58:48.709Z,16.33
2022-10-29T11:01:48.202Z,13.33
2022-10-29T11:04:23.078Z,19.23
2022-10-29T11:06:54.193Z,14.87
2022-10-29T11:09:47.433Z,18.47
2022-10-29T11:12:47.647Z,20.10
2022-10-29T11:15:47.319Z,22.80
2022-10-29T11:18:40.611Z,19.00
2022-10-29T11:21:20.549Z,14.60
2022-10-29T11:24:04.304Z,21.23
2022-10-29T11:27:08.963Z,19.00
2022-10-29T11:30:05.076Z,20.80
2022-10-29T11:32:54.542Z,15.80
2022-10-29T11:35:39.066Z,20.63
2022-10-29T11:38:34.328Z,14.97
2022-10-29T11:41:25.817Z,20.90
2022-10-29T11:43:54.821Z,19.50
2022-10-29T11:46:55.437Z,15.70
2022-10-29T11:49:48.474Z,12.87
2022-10-29T11:52:39.084Z,16.20
2022-10-29T11:55:29.027Z,17.20
2022-10-29T11:58:05.783Z,16.33
2022-10-29T12:01:02.207Z,15.03
2022-10-29T12:03:59.430Z,13.77
2022-10-29T12:06:34.102Z,17.00
2022-10-29T12:09:34.663Z,13.57
2022-10-29T12:12:13.679Z,18.90
2022-10-29T12:15:04.403Z,15.20
2022-10-29T12:17:47.293Z,24.07
2022-10-29T12:20:26.751Z,19.87
2022-10-29T12:23:03.928Z,24.60
2022-10-29T12:26:10.052Z,17.00
2022-10-29T12:29:01.643Z,17.50
2022-10-29T12:31:52.580Z,16.63
2022-10-29T12:34:51.354Z,16.67
2022-10-29T12:37:35.096Z,16.97
2022-10-29T12:40:23.963Z,15.30
2022-10-29T12:42:53.403Z,19.77
2022-10-29T12:45:27.521Z,15.83
2022-10-29T12:48:03.432Z,16.73
2022-10-29T12:50:40.784Z,16.50
2022-10-29T12:53:50.582Z,20.47
2022-10-29T12:56:19.718Z,18.37
2022-10-29T12:59:00.382Z,20.80
2022-10-29T13:02:09.734Z,18.83
2022-10-29T13:05:03.732Z,15.63
2022-10-29T13:07:32.215Z,17.27
2022-10-29T13:10:29.430Z,18.90
2022-10-29T13:13:00.801Z,15.70
2022-10-29T13:15:43.956Z,23.30
2022-10-29T13:18:41.293Z,15.87
2022-10-29T13:21:10.424Z,25.30
2022-10-29T13:23:41.664Z,23.13
2022-10-29T13:26:10.817Z,30.03
2022-10-29T13:28:39.113Z,24.43
2022-10-29T13:31:07.457Z,21.67
2022-10-29T13:33:35.762Z,28.70
2022-10-29T13:36:05.260Z,29.67
2022-10-29T13:39:04.382Z,27.13
2022-10-29T13:41:47.432Z,27.37
2022-10-29T13:44:25.555Z,26.50
2022-10-29T13:47:20.889Z,25.70
2022-10-29T13:49:51.599Z,23.10
2022-10-29T13:52:21.748Z,28.63
2022-10-29T13:54:55.927Z,23.70
2022-10-29T13:57:35.354Z,28.83
2022-10-29T14:00:13.739Z,30.13
2022-10-29T14:02:45.206Z,29.43
2022-10-29T14:05:16.484Z,22.30
2022-10-29T14:07:58.263Z,28.30
2022-10-29T14:10:58.949Z,26.70
2022-10-29T14:13:42.118Z,24.60
2022-10-29T14:16:16.305Z,29.57
2022-10-29T14:18:46.013Z,24.70
2022-10-29T14:21:23.093Z,26.83
2022-10-29T14:24:05.041Z,24.93
2022-10-29T14:26:36.508Z,32.80
2022-10-29T14:29:21.260Z,33.80
2022-10-29T14:32:08.575Z,34.00
2022-10-29T14:34:36.949Z,25.00
2022-10-29T14:37:13.653Z,31.30
2022-10-29T14:39:57.922Z,32.93
2022-10-29T14:42:49.431Z,28.90
2022-10-29T14:45:29.732Z,24.07
2022-10-29T14:48:10.417Z,30.00
2022-10-29T14:50:38.984Z,30.13
2022-10-29T14:53:23.599Z,35.93
2022-10-29T14:55:52.261Z,30.20
2022-10-29T14:58:34.981Z,36.40
2022-10-29T15:01:10.693Z,28.17
2022-10-29T15:03:39.352Z,27.83
2022-10-29T15:06:26.331Z,32.00
2022-10-29T15:09:04.612Z,34.43
2022-10-29T15:11:41.630Z,36.33
2022-10-29T15:14:34.235Z,25.73
2022-10-29T15:17:08.322Z,28.23
2022-10-29T15:19:37.070Z,31.70
2022-10-29T15:22:10.852Z,33.83
2022-10-29T15:24:39.853Z,32.70
2022-10-29T15:27:13.148Z,27.10
2022-10-29T15:29:43.258Z,28.93
2022-10-29T15:32:17.068Z,26.93
2022-10-29T15:34:58.148Z,27.67
2022-10-29T15:37:34.161Z,32.50
2022-10-29T15:40:13.351Z,24.60
2022-10-29T15:42:42.314Z,33.27
2022-10-29T15:47:55.471Z,30.53
2022-10-29T15:50:40.635Z,26.40
2022-10-29T15:53:15.391Z,31.13
2022-10-29T15:55:44.462Z,32.90
2022-10-29T15:58:20.534Z,25.27
2022-10-29T16:00:48.970Z,21.27
2022-10-29T16:03:23.503Z,30.17
2022-10-29T16:06:11.991Z,30.70
2022-10-29T16:08:43.508Z,23.27
2022-10-29T16:11:21.672Z,35.90
2022-10-29T16:13:54.873Z,28.80
2022-10-29T16:16:25.754Z,25.17
2022-10-29T16:18:55.430Z,31.40
2022-10-29T16:21:26.254Z,25.70
2022-10-29T16:23:55.101Z,27.80
2022-10-29T16:26:25.657Z,27.93
2022-10-29T16:28:54.270Z,30.27
2022-10-29T16:31:31.547Z,31.07
2022-10-29T16:34:02.373Z,39.80
2022-10-29T16:36:30.777Z,32.77
2022-10-29T16:38:59.242Z,34.60
2022-10-29T16:41:27.611Z,33.80
2022-10-29T16:43:55.985Z,29.57
2022-10-29T16:46:24.570Z,37.20
2022-10-29T16:48:52.949Z,32.47
2022-10-29T16:51:21.280Z,35.27
2022-10-29T16:53:49.672Z,37.33
2022-10-29T16:56:18.002Z,43.53
2022-10-29T16:58:46.373Z,41.20
2022-10-29T17:01:15.156Z,39.77
2022-10-29T17:03:43.708Z,41.27
2022-10-29T17:06:12.329Z,34.10
2022-10-29T17:08:41.542Z,37.10
2022-10-29T17:11:10.823Z,37.40
2022-10-29T17:13:39.849Z,32.47
2022-10-29T17:16:17.183Z,28.83
2022-10-29T17:18:45.853Z,36.73
2022-10-29T17:21:14.332Z,31.40
2022-10-29T17:23:42.731Z,37.03
2022-10-29T17:26:11.109Z,32.80
2022-10-29T17:28:40.355Z,38.10
2022-10-29T17:31:10.625Z,32.73
2022-10-29T17:33:39.116Z,37.80
2022-10-29T17:36:14.919Z,43.57
2022-10-29T17:38:43.435Z,37.30
2022-10-29T17:41:12.146Z,35.90
2022-10-29T17:43:40.493Z,41.80
2022-10-29T17:46:08.860Z,34.33
2022-10-29T17:48:37.651Z,37.13
2022-10-29T17:51:06.171Z,29.27
2022-10-29T17:53:34.509Z,30.43
2022-10-29T17:56:02.866Z,32.23
2022-10-29T17:58:32.005Z,39.07
2022-10-29T18:01:11.491Z,31.10
2022-10-29T18:03:40.127Z,32.70
2022-10-29T18:06:11.012Z,29.47
2022-10-29T18:08:41.697Z,35.03
2022-10-29T18:11:17.656Z,34.93
2022-10-29T18:13:47.340Z,29.30
2022-10-29T18:16:20.753Z,30.63
2022-10-29T18:19:01.074Z,33.27
2022-10-29T18:21:31.799Z,34.80
2022-10-29T18:24:00.260Z,36.50
2022-10-29T18:26:34.633Z,35.80
2022-10-29T18:29:06.374Z,31.73
2022-10-29T18:31:35.713Z,28.00
2022-10-29T18:34:06.908Z,32.47
2022-10-29T18:36:39.980Z,28.63
2022-10-29T18:39:08.712Z,39.17
2022-10-29T18:41:37.589Z,37.33
2022-10-29T18:44:06.128Z,35.50
2022-10-29T18:46:34.963Z,38.07
2022-10-29T18:49:03.464Z,37.23
2022-10-29T18:51:33.239Z,28.83
2022-10-29T18:54:01.957Z,31.30
2022-10-29T18:56:31.710Z,30.10
2022-10-29T18:59:01.496Z,32.50
2022-10-29T19:01:32.831Z,33.50
2022-10-29T19:04:03.682Z,29.77
2022-10-29T19:06:34.577Z,26.03
2022-10-29T19:09:05.015Z,34.97
2022-10-29T19:11:33.530Z,34.00
2022-10-29T19:14:04.535Z,28.63
2022-10-29T19:16:34.428Z,34.50
2022-10-29T19:21:39.703Z,24.60
2022-10-29T19:24:08.928Z,25.60
2022-10-29T19:26:37.651Z,28.50
2022-10-29T19:29:07.695Z,29.03
2022-10-29T19:31:37.291Z,34.03
2022-10-29T19:34:07.469Z,28.40
2022-10-29T19:36:37.985Z,26.97
2022-10-29T19:39:06.810Z,27.57
2022-10-29T19:41:35.239Z,27.90
2022-10-29T19:44:04.065Z,30.40
2022-10-29T19:46:32.441Z,27.07
2022-10-29T19:49:01.478Z,28.40
2022-10-29T19:51:30.357Z,24.20
2022-10-29T19:53:59.471Z,22.37
2022-10-29T19:56:27.869Z,24.60
2022-10-29T19:58:57.281Z,26.43
2022-10-29T20:01:25.929Z,28.63
2022-10-29T20:03:54.417Z,25.70
2022-10-29T20:06:22.860Z,23.70
2022-10-29T20:08:51.639Z,21.63
2022-10-29T20:11:20.215Z,23.07
2022-10-29T20:13:48.731Z,23.87
2022-10-29T20:16:19.774Z,22.67
2022-10-29T20:18:49.121Z,24.00
2022-10-29T20:21:18.397Z,30.13
2022-10-29T20:23:46.921Z,24.13
2022-10-29T20:26:15.453Z,22.90
2022-10-29T20:28:43.861Z,23.00
2022-10-29T20:31:18.396Z,23.77
2022-10-29T20:33:57.900Z,23.57
2022-10-29T20:36:28.993Z,26.27
2022-10-29T20:38:57.533Z,23.13
2022-10-29T20:41:26.013Z,23.07
2022-10-29T20:43:59.467Z,24.10
2022-10-29T20:46:28.260Z,24.63
2022-10-29T20:48:56.675Z,24.60
2022-10-29T20:51:25.844Z,27.07
2022-10-29T20:53:55.313Z,21.53
2022-10-29T20:56:25.880Z,23.73
2022-10-29T20:58:54.628Z,20.70
2022-10-29T21:01:25.237Z,21.97
2022-10-29T21:03:54.005Z,23.30
2022-10-29T21:06:23.206Z,22.23
2022-10-29T21:08:53.062Z,23.00
2022-10-29T21:11:22.750Z,24.03
2022-10-29T21:13:51.804Z,24.77
2022-10-29T21:16:21.846Z,20.13
2022-10-29T21:18:52.846Z,20.63
2022-10-29T21:21:21.267Z,24.00
2022-10-29T21:23:49.724Z,20.50
2022-10-29T21:26:23.317Z,21.07
2022-10-29T21:28:53.302Z,25.13
2022-10-29T21:31:22.651Z,23.23
2022-10-29T21:33:52.496Z,23.60
2022-10-29T21:36:21.156Z,18.07
2022-10-29T21:38:49.782Z,16.20
2022-10-29T21:41:19.214Z,20.30
2022-10-29T21:43:47.596Z,20.30
2022-10-29T21:46:16.027Z,19.30
2022-10-29T21:48:44.461Z,16.83
2022-10-29T21:51:14.576Z,15.00
2022-10-29T21:53:43.346Z,18.17
2022-10-29T21:56:14.764Z,20.97
2022-10-29T21:58:44.218Z,16.67
2022-10-29T22:01:16.691Z,13.87
2022-10-29T22:03:47.415Z,16.80
2022-10-29T22:06:20.817Z,14.40
2022-10-29T22:08:58.160Z,14.50
2022-10-29T22:11:28.386Z,19.00
2022-10-29T22:13:56.996Z,16.40
2022-10-29T22:16:25.402Z,15.80
2022-10-29T22:18:55.796Z,14.50
2022-10-29T22:21:28.634Z,14.23
2022-10-29T22:24:00.206Z,14.10
2022-10-29T22:26:31.883Z,18.17
2022-10-29T22:29:00.679Z,14.77
2022-10-29T22:31:29.195Z,15.90
2022-10-29T22:33:58.732Z,17.03
2022-10-29T22:36:28.999Z,16.50
2022-10-29T22:39:02.961Z,15.53
2022-10-29T22:41:31.956Z,15.47
2022-10-29T22:44:01.801Z,18.93
2022-10-29T22:46:32.013Z,16.13
2022-10-29T22:49:04.425Z,16.50
2022-10-29T22:51:35.635Z,17.00
2022-10-29T22:54:04.600Z,20.50
2022-10-29T22:56:35.325Z,20.37
2022-10-29T22:59:06.794Z,16.03
2022-10-29T23:01:42.379Z,17.37
2022-10-29T23:04:14.700Z,16.17
2022-10-29T23:06:43.097Z,17.90
2022-10-29T23:09:11.570Z,16.43
2022-10-29T23:11:40.287Z,17.33
2022-10-29T23:14:08.762Z,14.10
2022-10-29T23:16:37.783Z,16.70
2022-10-29T23:19:07.006Z,19.70
2022-10-29T23:21:35.392Z,21.90
2022-10-29T23:24:03.823Z,18.10
2022-10-29T23:26:32.467Z,18.23
2022-10-29T23:29:00.802Z,21.70
2022-10-29T23:31:30.093Z,19.87
2022-10-29T23:33:59.757Z,21.90
2022-10-29T23:36:29.225Z,19.23
2022-10-29T23:39:02.488Z,22.17
2022-10-29T23:41:32.188Z,23.53
2022-10-29T23:44:00.686Z,25.17
2022-10-29T23:46:29.205Z,26.87
2022-10-29T23:48:57.611Z,40.17
2022-10-29T23:51:26.025Z,31.40
2022-10-29T23:53:57.432Z,27.27
2022-10-29T23:56:26.663Z,20.97
2022-10-29T23:58:55.162Z,29.93
